Time;durP1;ratioP1;P1;durP2;ratioP2;P2;SDS_P1;SDS_P2;PMS_P1;PMS_P2;Temp;Humidity;BMP_temperature;BMP_pressure;BME280_temperature;BME280_humidity;BME280_pressure;Samples;Min_cycle;Max_cycle;Signal;HPM_P1;HPM_P2
2021/01/10 00:00:22;;;;;;;26.08;12.10;;;-0.90;99.90;;;;;;5020564;28;20041;-73
2021/01/10 00:02:49;;;;;;;29.50;12.20;;;-0.90;99.90;;;;;;5023367;28;20037;-74
2021/01/10 00:05:24;;;;;;;27.02;11.23;;;-0.90;99.90;;;;;;5021877;28;21824;-74
2021/01/10 00:07:50;;;;;;;24.02;10.40;;;-0.90;99.90;;;;;;5021804;28;20064;-73
2021/01/10 00:10:17;;;;;;;22.83;10.55;;;-0.80;99.90;;;;;;5021550;28;20037;-74
2021/01/10 00:12:44;;;;;;;28.48;11.07;;;-0.80;99.90;;;;;;5022307;28;20124;-73
2021/01/10 00:15:12;;;;;;;26.08;12.25;;;-0.80;99.90;;;;;;5020698;28;20550;-73
2021/01/10 00:17:39;;;;;;;22.23;9.90;;;-0.80;99.90;;;;;;5022029;28;20061;-73
2021/01/10 00:20:09;;;;;;;22.33;9.55;;;-0.80;99.90;;;;;;5021805;28;20444;-74
2021/01/10 00:22:35;;;;;;;25.60;10.70;;;-0.80;99.90;;;;;;5022918;28;20405;-74
2021/01/10 00:25:01;;;;;;;22.42;10.35;;;-0.90;99.90;;;;;;5018887;28;20048;-74
2021/01/10 00:27:26;;;;;;;25.33;11.27;;;-0.90;99.90;;;;;;5037244;28;20061;-74
2021/01/10 00:29:52;;;;;;;31.13;12.00;;;-0.90;99.90;;;;;;5022944;28;20038;-75
2021/01/10 00:32:18;;;;;;;33.03;13.63;;;-1.00;99.90;;;;;;5020751;28;20498;-74
2021/01/10 00:34:43;;;;;;;33.28;13.40;;;-1.00;99.90;;;;;;5019667;28;20038;-74
2021/01/10 00:37:18;;;;;;;29.33;12.50;;;-1.00;99.90;;;;;;5021835;28;20256;-74
2021/01/10 00:39:44;;;;;;;30.95;13.25;;;-1.10;99.90;;;;;;5024295;28;20037;-74
2021/01/10 00:42:12;;;;;;;30.45;13.20;;;-1.10;99.90;;;;;;5022180;28;20044;-74
2021/01/10 00:44:39;;;;;;;28.50;12.63;;;-1.10;99.90;;;;;;5023078;28;20442;-73
2021/01/10 00:47:05;;;;;;;32.35;14.55;;;-1.10;99.90;;;;;;5020579;28;20049;-74
2021/01/10 00:49:31;;;;;;;34.25;15.20;;;-1.10;99.90;;;;;;5022664;28;20385;-74
2021/01/10 00:51:56;;;;;;;37.53;16.40;;;-1.10;99.90;;;;;;5022372;28;20068;-73
2021/01/10 00:54:22;;;;;;;34.70;15.13;;;-1.10;99.90;;;;;;5021974;28;20037;-73
2021/01/10 00:56:48;;;;;;;44.45;15.32;;;-1.00;99.90;;;;;;5020890;28;20133;-74
2021/01/10 00:59:14;;;;;;;40.92;17.27;;;-1.00;99.90;;;;;;5022199;28;20045;-74
2021/01/10 01:01:39;;;;;;;38.25;16.10;;;-1.00;99.90;;;;;;5022770;28;20067;-75
2021/01/10 01:04:05;;;;;;;32.45;15.30;;;-1.00;99.90;;;;;;5023557;28;20033;-74
2021/01/10 01:06:31;;;;;;;32.13;15.60;;;-1.00;99.90;;;;;;5019606;28;20041;-74
2021/01/10 01:08:57;;;;;;;39.38;17.33;;;-1.00;99.90;;;;;;5021499;28;20041;-74
2021/01/10 01:11:33;;;;;;;42.85;16.67;;;-1.00;99.90;;;;;;5020711;28;20037;-75
2021/01/10 01:13:59;;;;;;;37.95;16.13;;;-1.00;99.90;;;;;;5021916;28;20148;-75
2021/01/10 01:16:25;;;;;;;39.65;17.75;;;-1.00;99.90;;;;;;5020254;28;20075;-74
2021/01/10 01:18:51;;;;;;;41.50;16.02;;;-1.00;99.90;;;;;;5022014;28;20065;-75
2021/01/10 01:21:18;;;;;;;32.38;15.55;;;-1.00;99.90;;;;;;5021527;28;20513;-75
2021/01/10 01:23:43;;;;;;;44.58;17.48;;;-1.00;99.90;;;;;;5007144;28;20046;-75
2021/01/10 01:26:20;;;;;;;38.35;16.85;;;-1.00;99.90;;;;;;5001866;28;20034;-75
2021/01/10 01:28:47;;;;;;;38.22;16.00;;;-0.90;99.90;;;;;;5022217;28;20120;-75
2021/01/10 01:31:14;;;;;;;35.80;16.85;;;-0.90;99.90;;;;;;5021591;28;20044;-75
2021/01/10 01:33:41;;;;;;;37.58;17.00;;;-0.90;99.90;;;;;;5021797;28;20497;-75
2021/01/10 01:36:28;;;;;;;41.13;18.67;;;-0.90;99.90;;;;;;5019519;28;20041;-76
2021/01/10 01:38:56;;;;;;;37.05;16.67;;;-0.90;99.90;;;;;;5022387;28;20033;-75
2021/01/10 01:41:22;;;;;;;36.13;16.95;;;-0.90;99.90;;;;;;5015215;28;20109;-75
2021/01/10 01:43:48;;;;;;;35.63;15.52;;;-0.90;99.90;;;;;;5022126;28;20045;-75
2021/01/10 01:46:24;;;;;;;37.40;15.25;;;-0.90;99.90;;;;;;5020189;28;20041;-75
2021/01/10 01:48:50;;;;;;;32.13;14.60;;;-0.90;99.90;;;;;;5020467;28;20041;-75
2021/01/10 01:51:16;;;;;;;35.70;13.85;;;-0.80;99.90;;;;;;5021172;28;20038;-75
2021/01/10 01:53:42;;;;;;;35.75;14.38;;;-0.80;99.90;;;;;;5022392;28;20232;-75
2021/01/10 01:56:07;;;;;;;37.03;15.02;;;-0.80;99.90;;;;;;5021882;28;20045;-75
2021/01/10 01:58:33;;;;;;;34.63;15.25;;;-0.80;99.90;;;;;;5022527;28;20033;-75
2021/01/10 02:00:58;;;;;;;27.95;13.00;;;-0.80;99.90;;;;;;5026027;28;20071;-75
2021/01/10 02:03:33;;;;;;;37.20;15.13;;;-0.80;99.90;;;;;;5025180;28;20524;-75
2021/01/10 02:06:01;;;;;;;;;;;-0.80;99.90;;;;;;5026467;28;20111;-75
2021/01/10 02:08:31;;;;;;;27.05;11.73;;;-0.80;99.90;;;;;;5027070;28;19917;-75
2021/01/10 02:11:03;;;;;;;29.77;12.55;;;-0.80;99.90;;;;;;5025042;28;20034;-74
2021/01/10 02:13:32;;;;;;;25.83;12.07;;;-0.80;99.90;;;;;;5024725;28;20048;-75
2021/01/10 02:15:59;;;;;;;29.50;13.25;;;-0.80;99.90;;;;;;5026070;28;20076;-76
2021/01/10 02:18:27;;;;;;;29.50;13.27;;;-0.90;99.90;;;;;;5019561;28;20029;-74
2021/01/10 02:20:54;;;;;;;34.60;14.45;;;-0.90;99.90;;;;;;5027641;28;20084;-74
2021/01/10 02:23:26;;;;;;;33.83;13.13;;;-0.90;99.90;;;;;;5025356;28;20041;-74
2021/01/10 02:25:54;;;;;;;31.60;14.73;;;-1.00;99.90;;;;;;5024846;28;20041;-74
2021/01/10 02:28:22;;;;;;;31.65;14.68;;;-1.00;99.90;;;;;;5022920;28;20075;-74
2021/01/10 02:30:49;;;;;;;29.05;13.13;;;-1.10;99.90;;;;;;5024207;28;20096;-74
2021/01/10 02:33:26;;;;;;;32.97;13.68;;;-1.10;99.90;;;;;;5023784;28;20433;-74
2021/01/10 02:35:53;;;;;;;29.20;13.30;;;-1.20;99.90;;;;;;5022269;28;20063;-74
2021/01/10 02:38:31;;;;;;;28.98;13.27;;;-1.30;99.90;;;;;;5020889;28;20033;-75
2021/01/10 02:41:12;;;;;;;32.42;14.52;;;-1.30;99.90;;;;;;5023309;28;20036;-74
2021/01/10 02:43:41;;;;;;;32.90;12.95;;;-1.30;99.90;;;;;;5023186;28;20115;-74
2021/01/10 02:46:07;;;;;;;31.67;13.57;;;-1.40;99.90;;;;;;5023574;28;20068;-73
2021/01/10 02:48:32;;;;;;;32.53;14.10;;;-1.40;99.90;;;;;;5025012;28;20124;-74
2021/01/10 02:50:58;;;;;;;32.67;13.93;;;-1.50;99.90;;;;;;5023311;28;20113;-74
2021/01/10 02:53:24;;;;;;;29.70;14.02;;;-1.50;99.90;;;;;;5023298;28;20095;-75
2021/01/10 02:55:49;;;;;;;28.52;12.30;;;-1.50;99.90;;;;;;5022231;28;20199;-74
2021/01/10 02:58:27;;;;;;;30.13;13.07;;;-1.60;99.90;;;;;;5021598;28;20475;-74
2021/01/10 03:00:58;;;;;;;27.02;12.32;;;-1.60;99.90;;;;;;5024308;28;20111;-74
2021/01/10 03:03:28;;;;;;;30.08;12.90;;;-1.60;99.90;;;;;;5024322;28;20029;-73
2021/01/10 03:05:54;;;;;;;27.05;12.40;;;-1.70;99.90;;;;;;5025704;28;20040;-74
2021/01/10 03:08:20;;;;;;;30.55;13.07;;;-1.70;99.90;;;;;;5023227;28;20457;-74
2021/01/10 03:10:48;;;;;;;31.95;13.98;;;-1.70;99.90;;;;;;5022987;28;20038;-74
2021/01/10 03:13:15;;;;;;;30.35;13.75;;;-1.80;99.90;;;;;;5023270;28;20406;-74
2021/01/10 03:15:40;;;;;;;27.27;12.95;;;-1.80;99.90;;;;;;5024069;28;20099;-74
2021/01/10 03:18:22;;;;;;;31.63;12.82;;;-1.90;99.90;;;;;;5017088;28;20052;-75
2021/01/10 03:20:49;;;;;;;31.33;13.20;;;-1.90;99.90;;;;;;5024150;28;20032;-74
2021/01/10 03:23:15;;;;;;;34.45;12.65;;;-1.90;99.90;;;;;;5020467;28;20732;-74
2021/01/10 03:25:41;;;;;;;28.38;12.45;;;-1.90;99.90;;;;;;5021976;28;20037;-74
2021/01/10 03:28:07;;;;;;;27.98;12.43;;;-2.00;99.90;;;;;;5022757;28;20341;-74
2021/01/10 03:30:33;;;;;;;31.52;13.02;;;-2.10;99.90;;;;;;5023400;28;20030;-74
2021/01/10 03:32:59;;;;;;;31.30;12.70;;;-2.00;99.90;;;;;;5023182;28;20433;-73
2021/01/10 03:35:24;;;;;;;24.65;10.65;;;-2.00;99.90;;;;;;5023704;28;20040;-74
2021/01/10 03:37:50;;;;;;;28.63;12.38;;;-2.10;99.90;;;;;;5021547;28;20037;-74
2021/01/10 03:40:16;;;;;;;28.40;11.75;;;-2.00;99.90;;;;;;5010745;28;20038;-74
2021/01/10 03:42:42;;;;;;;26.38;11.75;;;-2.10;99.90;;;;;;4980701;28;20707;-74
2021/01/10 03:45:09;;;;;;;28.73;11.45;;;-2.10;99.90;;;;;;5023581;28;20327;-74
2021/01/10 03:47:35;;;;;;;21.27;9.93;;;-2.10;99.90;;;;;;4976562;28;20036;-74
2021/01/10 03:50:01;;;;;;;24.60;10.35;;;-2.10;99.90;;;;;;5028944;28;20304;-74
2021/01/10 03:52:26;;;;;;;26.38;11.35;;;-2.10;99.90;;;;;;4990028;28;20072;-74
2021/01/10 03:54:52;;;;;;;25.73;11.95;;;-2.00;99.90;;;;;;4978312;28;20174;-75
2021/01/10 03:57:18;;;;;;;22.42;10.35;;;-2.00;99.90;;;;;;4993763;28;20463;-75
2021/01/10 03:59:43;;;;;;;25.83;10.00;;;-1.90;99.90;;;;;;5021320;28;20064;-74
2021/01/10 04:02:09;;;;;;;26.75;12.25;;;-1.90;99.90;;;;;;4998081;28;20056;-74
2021/01/10 04:04:34;;;;;;;23.60;11.00;;;-1.80;99.90;;;;;;4997633;28;20045;-75
2021/01/10 04:07:00;;;;;;;29.63;11.88;;;-1.80;99.90;;;;;;5000783;28;20046;-75
2021/01/10 04:09:26;;;;;;;27.58;11.77;;;-1.70;99.90;;;;;;4979160;28;20179;-75
2021/01/10 04:11:51;;;;;;;26.65;11.30;;;-1.70;99.90;;;;;;5024917;28;20033;-75
2021/01/10 04:14:17;;;;;;;28.77;11.98;;;-1.70;99.90;;;;;;4999159;28;20041;-75
2021/01/10 04:16:43;;;;;;;27.35;11.52;;;-1.70;99.90;;;;;;5001682;28;20133;-75
2021/01/10 04:19:08;;;;;;;29.48;11.82;;;-1.70;99.90;;;;;;5015375;28;20495;-75
2021/01/10 04:21:35;;;;;;;25.73;11.35;;;-1.70;99.90;;;;;;5036253;28;20040;-75
2021/01/10 04:24:02;;;;;;;28.88;12.15;;;-1.70;99.90;;;;;;5013098;28;20041;-75
2021/01/10 04:26:28;;;;;;;26.83;11.25;;;-1.60;99.90;;;;;;5019777;28;20284;-75
2021/01/10 04:28:53;;;;;;;24.23;10.68;;;-1.60;99.90;;;;;;4966591;28;20104;-75
2021/01/10 04:31:19;;;;;;;25.98;11.48;;;-1.60;99.90;;;;;;5001455;28;20529;-75
2021/01/10 04:33:45;;;;;;;26.35;11.35;;;-1.60;99.90;;;;;;5023612;28;20508;-75
2021/01/10 04:36:10;;;;;;;22.63;10.52;;;-1.50;99.90;;;;;;5025686;28;20107;-75
2021/01/10 04:38:36;;;;;;;23.50;10.77;;;-1.50;99.90;;;;;;5007751;28;20029;-75
2021/01/10 04:41:03;;;;;;;24.95;11.02;;;-1.40;99.90;;;;;;4986651;28;20563;-74
2021/01/10 04:43:28;;;;;;;23.70;10.60;;;-1.40;99.90;;;;;;5015209;28;20037;-74
2021/01/10 04:45:55;;;;;;;24.33;12.05;;;-1.40;99.90;;;;;;5001862;28;20041;-74
2021/01/10 04:48:22;;;;;;;23.95;10.65;;;-1.30;99.90;;;;;;5021307;28;20030;-74
2021/01/10 04:50:48;;;;;;;24.50;10.00;;;-1.30;99.90;;;;;;4980679;28;20515;-74
2021/01/10 04:53:19;;;;;;;21.13;10.98;;;-1.30;99.90;;;;;;5025008;28;20033;-74
2021/01/10 04:55:46;;;;;;;24.70;10.43;;;-1.30;99.90;;;;;;4996057;28;20860;-74
2021/01/10 04:58:12;;;;;;;25.15;10.27;;;-1.30;99.90;;;;;;5023370;28;20464;-75
2021/01/10 05:00:37;;;;;;;26.40;10.95;;;-1.30;99.90;;;;;;5023549;28;20057;-74
2021/01/10 05:03:08;;;;;;;23.52;11.02;;;-1.20;99.90;;;;;;5021846;28;20433;-74
2021/01/10 05:05:35;;;;;;;26.85;11.88;;;-1.20;99.90;;;;;;5021809;28;20034;-74
2021/01/10 05:08:08;;;;;;;22.90;11.90;;;-1.10;99.90;;;;;;5020800;28;20084;-73
2021/01/10 05:10:33;;;;;;;26.30;11.07;;;-1.10;99.90;;;;;;5020806;28;20026;-73
2021/01/10 05:12:59;;;;;;;29.30;11.65;;;-1.10;99.90;;;;;;5019379;28;20401;-74
2021/01/10 05:15:25;;;;;;;25.77;11.07;;;-1.10;99.90;;;;;;5022376;28;20038;-74
2021/01/10 05:17:58;;;;;;;26.00;11.73;;;-1.10;99.90;;;;;;5023408;28;20037;-74
2021/01/10 05:20:31;;;;;;;27.08;11.25;;;-1.10;99.90;;;;;;5022721;28;20563;-74
2021/01/10 05:22:58;;;;;;;24.63;10.77;;;-1.00;99.90;;;;;;5022064;28;20041;-74
2021/01/10 05:25:24;;;;;;;23.73;11.57;;;-1.00;99.90;;;;;;5021351;28;20515;-75
2021/01/10 05:27:53;;;;;;;27.60;11.60;;;-1.00;99.90;;;;;;5023170;28;20041;-75
2021/01/10 05:30:29;;;;;;;25.88;11.85;;;-0.90;99.90;;;;;;5019018;28;20026;-74
2021/01/10 05:33:08;;;;;;;25.90;11.55;;;-0.90;99.90;;;;;;5024784;28;20678;-75
2021/01/10 05:35:57;;;;;;;24.35;11.20;;;-0.90;99.90;;;;;;5025642;28;20037;-74
2021/01/10 05:38:33;;;;;;;26.50;11.23;;;-0.90;99.90;;;;;;5025777;28;20029;-74
2021/01/10 05:41:00;;;;;;;34.05;12.93;;;-1.00;99.90;;;;;;5027164;28;20310;-74
2021/01/10 05:43:27;;;;;;;27.02;11.68;;;-1.00;99.90;;;;;;5026492;28;20490;-74
2021/01/10 05:45:53;;;;;;;30.65;13.32;;;-1.00;99.90;;;;;;5025814;28;20080;-74
2021/01/10 05:48:19;;;;;;;30.30;12.25;;;-1.00;99.90;;;;;;5026498;28;20062;-74
2021/01/10 05:50:50;;;;;;;27.77;12.05;;;-1.00;99.90;;;;;;5028282;28;20072;-75
2021/01/10 05:53:23;;;;;;;31.15;13.52;;;-1.10;99.90;;;;;;5026865;28;20044;-75
2021/01/10 05:55:57;;;;;;;30.88;13.25;;;-1.10;99.90;;;;;;5027458;28;20087;-75
2021/01/10 05:58:24;;;;;;;25.50;12.57;;;-1.10;99.90;;;;;;5026959;28;20025;-74
2021/01/10 06:00:53;;;;;;;25.15;11.10;;;-1.00;99.90;;;;;;5026965;28;20211;-74
2021/01/10 06:03:21;;;;;;;29.77;12.70;;;-1.10;99.90;;;;;;5025121;28;20044;-74
2021/01/10 06:05:54;;;;;;;28.40;11.70;;;-1.20;99.90;;;;;;5027345;28;20034;-74
2021/01/10 06:08:40;;;;;;;31.55;13.25;;;-1.20;99.90;;;;;;5025444;28;20416;-75
2021/01/10 06:11:27;;;;;;;26.00;11.55;;;-1.10;99.90;;;;;;5021387;28;20236;-75
2021/01/10 06:13:54;;;;;;;30.58;12.38;;;-1.00;99.90;;;;;;5025832;28;20040;-76
2021/01/10 06:16:28;;;;;;;24.58;11.75;;;-1.00;99.90;;;;;;5026488;28;20041;-75
2021/01/10 06:18:55;;;;;;;;;;;-1.10;99.90;;;;;;5025757;28;20116;-75
2021/01/10 06:21:25;;;;;;;26.23;10.95;;;-1.10;99.90;;;;;;5024536;28;19909;-75
2021/01/10 06:23:53;;;;;;;22.98;10.90;;;-1.00;99.90;;;;;;5025324;28;20521;-74
2021/01/10 06:26:21;;;;;;;27.92;12.10;;;-1.00;99.90;;;;;;5026270;28;20057;-75
2021/01/10 06:28:54;;;;;;;30.42;11.48;;;-1.00;99.90;;;;;;5026769;28;20120;-74
2021/01/10 06:31:34;;;;;;;24.52;10.73;;;-1.00;99.90;;;;;;5026244;28;20040;-74
2021/01/10 06:34:05;;;;;;;22.98;11.23;;;-0.90;99.90;;;;;;5024826;28;20049;-75
2021/01/10 06:36:39;;;;;;;20.98;10.13;;;-0.90;99.90;;;;;;5026002;28;20068;-75
2021/01/10 06:39:12;;;;;;;;;;;-0.90;99.90;;;;;;5023326;28;20091;-76
2021/01/10 06:41:52;;;;;;;23.80;10.43;;;-0.80;99.90;;;;;;5025220;28;20299;-74
2021/01/10 06:44:20;;;;;;;24.85;10.35;;;-0.80;99.90;;;;;;5015932;28;20370;-75
2021/01/10 06:46:50;;;;;;;22.88;10.70;;;-0.80;99.90;;;;;;5024450;28;20133;-75
2021/01/10 06:49:16;;;;;;;23.58;9.68;;;-0.70;99.90;;;;;;5025145;28;20271;-74
2021/01/10 06:51:47;;;;;;;22.98;10.43;;;-0.70;99.90;;;;;;5024580;28;20029;-74
2021/01/10 06:54:13;;;;;;;24.48;10.93;;;-0.70;99.90;;;;;;5024268;28;20038;-74
2021/01/10 06:56:46;;;;;;;26.33;11.63;;;-0.60;99.90;;;;;;5024615;28;20157;-74
2021/01/10 06:59:14;;;;;;;23.77;11.18;;;-0.60;99.90;;;;;;5023424;28;20033;-74
2021/01/10 07:01:48;;;;;;;26.13;11.55;;;-0.60;99.90;;;;;;5024513;28;20124;-74
2021/01/10 07:04:14;;;;;;;;;;;-0.60;99.90;;;;;;5024093;28;20099;-74
2021/01/10 07:06:47;;;;;;;29.40;11.88;;;-0.60;99.90;;;;;;5022555;28;20285;-74
2021/01/10 07:09:14;;;;;;;22.85;10.60;;;-0.70;99.90;;;;;;5021595;28;20037;-73
2021/01/10 07:11:40;;;;;;;23.85;11.25;;;-0.70;99.90;;;;;;5024083;28;20117;-73
2021/01/10 07:14:05;;;;;;;26.83;11.20;;;-0.80;99.90;;;;;;5023869;28;20560;-74
2021/01/10 07:16:32;;;;;;;22.13;10.32;;;-0.70;99.90;;;;;;5023130;28;20129;-74
2021/01/10 07:19:06;;;;;;;26.02;11.45;;;-0.70;99.90;;;;;;5021994;28;20452;-74
2021/01/10 07:21:39;;;;;;;29.27;11.43;;;-0.70;99.90;;;;;;5022721;28;20044;-74
2021/01/10 07:24:16;;;;;;;24.38;11.55;;;-0.60;99.90;;;;;;5024951;28;20029;-74
2021/01/10 07:26:44;;;;;;;21.88;9.85;;;-0.70;99.90;;;;;;5024007;28;20037;-74
2021/01/10 07:29:32;;;;;;;31.88;12.02;;;-0.70;99.90;;;;;;5022551;28;20049;-75
2021/01/10 07:32:05;;;;;;;28.98;11.60;;;-0.70;99.90;;;;;;5022406;28;20597;-74
2021/01/10 07:34:33;;;;;;;25.17;11.38;;;-0.70;99.90;;;;;;5022780;28;20042;-74
2021/01/10 07:37:01;;;;;;;28.45;11.52;;;-0.70;99.90;;;;;;5022086;28;20541;-75
2021/01/10 07:39:29;;;;;;;30.52;13.05;;;-0.70;99.90;;;;;;5022475;28;20131;-75
2021/01/10 07:42:12;;;;;;;32.28;12.68;;;-0.70;99.90;;;;;;5021101;28;20061;-74
2021/01/10 07:44:48;;;;;;;29.73;11.68;;;-0.70;99.90;;;;;;5021464;28;20299;-75
2021/01/10 07:47:14;;;;;;;26.48;11.80;;;-0.60;99.90;;;;;;5022016;28;20076;-75
2021/01/10 07:49:58;;;;;;;30.50;12.18;;;-0.60;99.90;;;;;;5023200;28;20065;-75
2021/01/10 07:52:41;;;;;;;27.37;12.53;;;-0.70;99.90;;;;;;5023316;28;20033;-75
2021/01/10 07:55:19;;;;;;;31.83;13.50;;;-0.60;99.90;;;;;;5023199;28;20291;-73
2021/01/10 07:57:54;;;;;;;28.63;12.35;;;-0.60;99.90;;;;;;5022405;28;20520;-74
2021/01/10 08:00:33;;;;;;;27.63;12.55;;;-0.60;99.90;;;;;;5019323;28;20549;-74
2021/01/10 08:03:09;;;;;;;25.75;11.82;;;-0.60;99.90;;;;;;5022764;28;20030;-74
2021/01/10 08:05:36;;;;;;;26.40;11.88;;;-0.60;99.90;;;;;;5020135;28;20379;-74
2021/01/10 08:08:05;;;;;;;35.45;13.13;;;-0.60;99.90;;;;;;5022045;28;20350;-74
2021/01/10 08:10:42;;;;;;;23.77;11.10;;;-0.50;99.90;;;;;;5023406;28;20156;-74
2021/01/10 08:13:30;;;;;;;25.92;11.48;;;-0.60;99.90;;;;;;5025474;28;20041;-74
2021/01/10 08:16:00;;;;;;;25.95;11.82;;;-0.50;99.90;;;;;;5033764;28;20041;-75
2021/01/10 08:18:30;;;;;;;30.30;13.18;;;-0.40;99.90;;;;;;5023920;28;20041;-74
2021/01/10 08:20:56;;;;;;;28.33;12.80;;;-0.40;99.90;;;;;;5023014;28;20067;-74
2021/01/10 08:23:22;;;;;;;31.35;12.70;;;-0.40;99.90;;;;;;5022657;28;20514;-74
2021/01/10 08:25:51;;;;;;;26.30;12.80;;;-0.30;99.90;;;;;;5021754;28;20045;-73
2021/01/10 08:28:18;;;;;;;26.02;11.63;;;-0.30;99.90;;;;;;4985997;23;20114;-75
2021/01/10 08:30:45;;;;;;;31.42;13.10;;;-0.30;99.90;;;;;;4950293;28;20038;-75
2021/01/10 08:33:21;;;;;;;27.65;12.10;;;-0.20;99.90;;;;;;4959859;28;20039;-75
2021/01/10 08:35:47;;;;;;;24.45;12.15;;;-0.80;99.90;;;;;;4954486;28;20084;-76
2021/01/10 08:38:14;;;;;;;22.67;10.35;;;-0.10;99.90;;;;;;4961748;28;20049;-75
2021/01/10 08:40:39;;;;;;;31.30;12.15;;;-0.10;99.90;;;;;;4972034;28;20600;-74
2021/01/10 08:43:05;;;;;;;27.65;11.95;;;0.00;99.90;;;;;;4968415;28;20038;-74
2021/01/10 08:45:32;;;;;;;29.77;12.50;;;0.10;99.90;;;;;;4972029;28;20038;-74
2021/01/10 08:48:04;;;;;;;22.52;11.15;;;0.00;99.90;;;;;;4970940;28;20034;-75
2021/01/10 08:50:43;;;;;;;30.70;13.40;;;0.10;99.90;;;;;;4968835;28;20043;-73
2021/01/10 08:53:09;;;;;;;30.58;11.88;;;0.10;99.90;;;;;;4969467;28;20042;-74
2021/01/10 08:55:40;;;;;;;20.73;10.23;;;0.20;99.90;;;;;;4968024;28;20159;-73
2021/01/10 08:58:07;;;;;;;28.25;12.15;;;0.20;99.90;;;;;;4965959;28;20133;-73
2021/01/10 09:00:34;;;;;;;30.20;12.05;;;0.20;99.90;;;;;;4971446;28;20038;-73
2021/01/10 09:03:12;;;;;;;23.38;10.88;;;0.30;99.90;;;;;;4958803;28;20043;-73
2021/01/10 09:05:38;;;;;;;26.33;11.90;;;0.30;99.90;;;;;;4974995;28;20165;-73
2021/01/10 09:08:06;;;;;;;26.65;12.07;;;0.50;99.90;;;;;;4968704;28;20130;-73
2021/01/10 09:10:42;;;;;;;22.15;10.65;;;0.40;99.90;;;;;;4968924;28;20039;-73
2021/01/10 09:13:10;;;;;;;26.73;10.50;;;0.40;99.90;;;;;;4960890;28;20130;-74
2021/01/10 09:15:40;;;;;;;24.75;11.23;;;0.50;99.90;;;;;;4983337;28;20035;-74
2021/01/10 09:18:11;;;;;;;23.58;10.90;;;0.40;99.90;;;;;;4972422;28;20059;-73
2021/01/10 09:20:54;;;;;;;24.08;11.52;;;0.40;99.90;;;;;;4968697;28;20044;-74
2021/01/10 09:23:20;;;;;;;24.77;11.15;;;0.30;99.90;;;;;;4968447;28;20118;-73
2021/01/10 09:25:46;;;;;;;21.77;10.57;;;0.40;99.90;;;;;;4963362;28;20049;-73
2021/01/10 09:28:17;;;;;;;24.40;10.55;;;0.50;99.90;;;;;;4968177;28;20038;-73
2021/01/10 09:30:51;;;;;;;23.70;10.65;;;0.50;99.90;;;;;;4961621;28;20041;-73
2021/01/10 09:33:24;;;;;;;21.67;10.35;;;0.50;99.90;;;;;;4967977;28;20134;-73
2021/01/10 09:35:50;;;;;;;21.38;10.40;;;0.70;99.90;;;;;;4976935;28;20074;-73
2021/01/10 09:38:20;;;;;;;26.50;11.02;;;0.80;99.90;;;;;;4958531;28;20046;-73
2021/01/10 09:41:13;;;;;;;22.85;10.52;;;0.90;99.90;;;;;;4963626;28;20042;-73
2021/01/10 09:43:44;;;;;;;23.48;10.80;;;0.90;99.90;;;;;;4964975;28;20085;-73
2021/01/10 09:46:28;;;;;;;25.27;11.15;;;0.80;99.90;;;;;;4959473;28;20118;-73
2021/01/10 09:49:01;;;;;;;18.73;9.13;;;0.80;99.90;;;;;;4968334;28;20195;-74
2021/01/10 09:51:40;;;;;;;19.77;9.88;;;0.70;99.90;;;;;;4963063;28;20290;-74
2021/01/10 09:54:39;;;;;;;25.38;11.70;;;0.60;99.90;;;;;;4964043;28;20388;-73
2021/01/10 09:57:11;;;;;;;25.30;9.98;;;0.70;99.90;;;;;;4967480;28;20077;-73
2021/01/10 09:59:41;;;;;;;22.75;9.45;;;0.70;99.90;;;;;;4968787;28;20042;-75
2021/01/10 10:02:07;;;;;;;21.08;9.80;;;0.70;99.90;;;;;;4967099;28;20046;-75
2021/01/10 10:04:33;;;;;;;27.75;11.40;;;0.70;99.90;;;;;;4962212;28;20345;-74
2021/01/10 10:06:59;;;;;;;22.23;10.98;;;0.70;99.90;;;;;;4976278;28;20078;-74
2021/01/10 10:09:53;;;;;;;28.45;10.48;;;0.60;99.90;;;;;;4972954;28;20065;-74
2021/01/10 10:12:23;;;;;;;21.40;10.75;;;0.60;99.90;;;;;;4961003;28;20466;-74
2021/01/10 10:14:56;;;;;;;23.92;10.45;;;0.60;99.90;;;;;;4970111;28;20037;-75
2021/01/10 10:17:29;;;;;;;22.60;10.32;;;0.60;99.90;;;;;;4962883;28;20054;-74
2021/01/10 10:19:55;;;;;;;22.02;10.40;;;0.60;99.90;;;;;;4959613;28;20382;-74
2021/01/10 10:22:32;;;;;;;24.67;11.07;;;0.70;99.90;;;;;;4970718;28;20172;-74
2021/01/10 10:24:59;;;;;;;22.50;10.95;;;0.60;99.90;;;;;;4982455;28;20035;-74
2021/01/10 10:27:30;;;;;;;22.17;10.38;;;0.70;99.90;;;;;;4973561;28;20137;-74
2021/01/10 10:29:56;;;;;;;19.90;9.95;;;0.70;99.90;;;;;;4969430;28;20509;-76
2021/01/10 10:32:22;;;;;;;20.60;10.30;;;0.70;99.90;;;;;;4969726;28;20038;-77
2021/01/10 10:34:49;;;;;;;20.70;8.95;;;0.70;99.90;;;;;;4972446;28;20413;-77
2021/01/10 10:37:16;;;;;;;23.23;10.25;;;0.80;99.90;;;;;;4971596;28;20138;-77
2021/01/10 10:39:43;;;;;;;26.70;9.88;;;0.90;99.90;;;;;;4985749;28;20403;-76
2021/01/10 10:42:16;;;;;;;22.90;9.85;;;1.00;99.90;;;;;;4980698;28;20162;-76
2021/01/10 10:44:43;;;;;;;20.60;11.07;;;1.00;99.90;;;;;;4972237;28;20042;-77
2021/01/10 10:47:13;;;;;;;19.63;8.98;;;1.10;99.90;;;;;;4974449;28;20510;-77
2021/01/10 10:49:40;;;;;;;19.45;9.40;;;1.20;99.90;;;;;;4988200;28;20043;-77
2021/01/10 10:52:13;;;;;;;17.27;8.60;;;1.30;99.90;;;;;;4971783;28;20491;-77
2021/01/10 10:54:39;;;;;;;17.13;8.82;;;1.40;99.90;;;;;;4970050;28;20542;-77
2021/01/10 10:57:09;;;;;;;23.85;9.70;;;1.30;99.90;;;;;;4973776;28;20333;-78
2021/01/10 10:59:36;;;;;;;18.10;8.70;;;1.20;99.90;;;;;;4977255;28;20094;-78
2021/01/10 11:02:03;;;;;;;24.02;10.02;;;1.20;99.90;;;;;;4972835;28;20407;-77
2021/01/10 11:04:28;;;;;;;19.48;8.63;;;1.20;99.90;;;;;;4974576;28;20038;-77
2021/01/10 11:06:54;;;;;;;18.80;8.38;;;1.30;99.90;;;;;;4975395;28;20034;-77
2021/01/10 11:09:19;;;;;;;20.98;9.77;;;1.20;99.90;;;;;;4974811;28;20073;-78
2021/01/10 11:11:47;;;;;;;20.40;9.25;;;1.20;99.90;;;;;;4974889;28;20053;-77
2021/01/10 11:14:14;;;;;;;18.58;8.85;;;1.30;99.90;;;;;;4975488;28;20035;-76
2021/01/10 11:16:43;;;;;;;23.38;8.80;;;1.20;99.90;;;;;;4972425;28;20039;-78
2021/01/10 11:19:09;;;;;;;20.00;9.13;;;1.30;99.90;;;;;;4975023;28;20042;-77
2021/01/10 11:21:40;;;;;;;19.88;8.70;;;1.30;99.90;;;;;;4977021;28;20045;-78
2021/01/10 11:24:07;;;;;;;20.45;9.60;;;1.40;99.90;;;;;;4975945;28;20074;-78
2021/01/10 11:26:33;;;;;;;17.65;9.02;;;1.40;99.90;;;;;;4974622;28;20602;-77
2021/01/10 11:28:59;;;;;;;20.92;10.02;;;1.50;99.90;;;;;;4975726;28;20039;-79
2021/01/10 11:31:26;;;;;;;23.30;11.10;;;1.40;99.90;;;;;;4973418;28;20547;-77
2021/01/10 11:33:52;;;;;;;20.23;9.40;;;1.50;99.90;;;;;;4975876;28;20038;-77
2021/01/10 11:36:21;;;;;;;20.15;9.77;;;1.50;99.90;;;;;;4973806;28;20439;-77
2021/01/10 11:38:50;;;;;;;21.05;9.18;;;1.40;99.90;;;;;;4972929;28;20030;-78
2021/01/10 11:41:17;;;;;;;22.35;10.38;;;1.50;99.90;;;;;;4975738;28;20435;-77
2021/01/10 11:43:43;;;;;;;18.33;9.30;;;1.80;99.90;;;;;;4976654;28;20038;-77
2021/01/10 11:46:09;;;;;;;23.80;10.35;;;1.70;99.90;;;;;;4972275;28;20043;-78
2021/01/10 11:48:36;;;;;;;18.25;8.60;;;1.80;99.90;;;;;;4970849;28;20041;-77
2021/01/10 11:51:03;;;;;;;26.08;10.98;;;2.00;99.90;;;;;;4973399;28;20185;-77
2021/01/10 11:53:28;;;;;;;18.73;8.75;;;2.00;99.90;;;;;;4975044;28;20071;-76
2021/01/10 11:55:54;;;;;;;20.90;9.52;;;2.10;99.90;;;;;;4969968;28;20035;-77
2021/01/10 11:58:19;;;;;;;18.25;9.63;;;2.20;99.90;;;;;;4979048;28;20038;-77
2021/01/10 12:00:49;;;;;;;14.75;7.45;;;2.30;99.90;;;;;;4976963;28;20112;-77
2021/01/10 12:03:14;;;;;;;18.02;8.80;;;2.20;99.10;;;;;;4970156;28;20035;-77
2021/01/10 12:05:40;;;;;;;24.92;9.57;;;2.10;99.40;;;;;;4969562;28;20027;-78
2021/01/10 12:08:06;;;;;;;18.00;8.73;;;2.20;99.40;;;;;;4968398;28;20039;-77
2021/01/10 12:10:33;;;;;;;22.80;9.00;;;2.30;98.80;;;;;;4970750;28;20634;-78
2021/01/10 12:12:59;;;;;;;19.05;8.73;;;2.40;98.80;;;;;;4970256;28;20244;-77
2021/01/10 12:15:25;;;;;;;19.05;8.90;;;2.50;98.40;;;;;;4971314;28;20039;-77
2021/01/10 12:17:51;;;;;;;16.15;8.25;;;2.60;98.00;;;;;;4968176;28;20042;-79
2021/01/10 12:20:16;;;;;;;17.75;8.82;;;2.60;97.10;;;;;;4965905;28;20039;-77
2021/01/10 12:22:42;;;;;;;17.67;8.40;;;2.70;96.60;;;;;;4984664;28;20031;-78
2021/01/10 12:25:09;;;;;;;16.75;8.80;;;2.60;96.90;;;;;;4986816;28;20557;-78
2021/01/10 12:27:35;;;;;;;19.80;8.57;;;2.60;96.30;;;;;;4968439;28;20760;-78
2021/01/10 12:30:01;;;;;;;17.27;7.75;;;2.90;96.80;;;;;;4971522;28;20522;-78
2021/01/10 12:32:29;;;;;;;21.50;7.20;;;2.90;94.40;;;;;;4967331;28;20043;-78
2021/01/10 12:34:55;;;;;;;14.40;6.93;;;2.80;93.50;;;;;;4981358;28;20488;-78
2021/01/10 12:37:20;;;;;;;14.10;6.90;;;2.90;92.70;;;;;;4968165;28;20062;-78
2021/01/10 12:39:46;;;;;;;23.30;6.75;;;2.80;92.40;;;;;;4966339;28;20533;-77
2021/01/10 12:42:15;;;;;;;11.57;6.20;;;2.80;92.20;;;;;;4972588;28;20046;-78